Time;durP1;ratioP1;P1;durP2;ratioP2;P2;SDS_P1;SDS_P2;PMS_P1;PMS_P2;Temp;Humidity;BMP_temperature;BMP_pressure;BME280_temperature;BME280_humidity;BME280_pressure;Samples;Min_cycle;Max_cycle;Signal;HPM_P1;HPM_P2
2022/09/10 00:00:44;;;;;;;5.03;2.20;;;;;;;;;;5033740;28;20666;-77
2022/09/10 00:03:11;;;;;;;4.93;1.50;;;;;;;;;;5031698;28;20204;-78
2022/09/10 00:05:41;;;;;;;6.20;1.67;;;;;;;;;;5032320;28;20211;-77
2022/09/10 00:08:09;;;;;;;4.63;1.60;;;;;;;;;;5030348;28;20564;-78
2022/09/10 00:10:39;;;;;;;3.03;1.80;;;;;;;;;;5030140;28;20591;-76
2022/09/10 00:13:08;;;;;;;8.90;1.67;;;;;;;;;;5029522;28;20199;-77
2022/09/10 00:15:39;;;;;;;7.23;1.63;;;;;;;;;;5030042;28;20208;-77
2022/09/10 00:18:07;;;;;;;4.13;1.57;;;;;;;;;;5030795;28;20231;-77
2022/09/10 00:20:35;;;;;;;2.77;1.63;;;;;;;;;;5031749;28;20204;-77
2022/09/10 00:23:02;;;;;;;5.93;1.83;;;;;;;;;;5030200;28;20214;-77
2022/09/10 00:25:31;;;;;;;6.90;2.03;;;;;;;;;;5029437;28;20226;-77
2022/09/10 00:27:59;;;;;;;4.03;1.80;;;;;;;;;;5028233;28;20224;-75
2022/09/10 00:30:27;;;;;;;5.40;1.63;;;;;;;;;;5026958;28;20781;-77
2022/09/10 00:32:55;;;;;;;6.40;2.00;;;;;;;;;;5023789;28;20209;-76
2022/09/10 00:35:23;;;;;;;5.60;1.87;;;;;;;;;;5031930;28;20750;-77
2022/09/10 00:37:50;;;;;;;3.90;2.30;;;;;;;;;;5032270;28;20318;-76
2022/09/10 00:40:17;;;;;;;4.33;1.90;;;;;;;;;;5030038;28;20337;-78
2022/09/10 00:42:44;;;;;;;4.40;2.00;;;;;;;;;;5031115;28;20564;-78
2022/09/10 00:45:17;;;;;;;3.93;2.03;;;;;;;;;;5030613;28;20203;-76
2022/09/10 00:47:46;;;;;;;3.00;1.93;;;;;;;;;;5027254;28;20220;-78
2022/09/10 00:50:18;;;;;;;5.70;2.10;;;;;;;;;;5032699;28;20706;-78
2022/09/10 00:52:46;;;;;;;5.00;2.10;;;;;;;;;;5033072;28;20200;-77
2022/09/10 00:55:14;;;;;;;3.13;1.60;;;;;;;;;;5028621;28;20246;-76
2022/09/10 00:57:42;;;;;;;5.77;2.00;;;;;;;;;;5030602;28;20227;-77
2022/09/10 01:00:11;;;;;;;2.13;1.70;;;;;;;;;;5029726;28;20207;-75
2022/09/10 01:02:39;;;;;;;9.60;1.90;;;;;;;;;;5029199;28;20207;-78
2022/09/10 01:05:07;;;;;;;3.93;1.70;;;;;;;;;;5030724;28;20684;-76
2022/09/10 01:07:36;;;;;;;6.97;2.17;;;;;;;;;;5030001;28;20223;-75
2022/09/10 01:10:05;;;;;;;4.13;1.90;;;;;;;;;;5028057;28;20215;-76
2022/09/10 01:12:38;;;;;;;5.47;1.83;;;;;;;;;;5029299;28;20196;-77
2022/09/10 01:15:12;;;;;;;4.43;1.83;;;;;;;;;;5029408;28;20214;-78
2022/09/10 01:17:44;;;;;;;5.03;2.13;;;;;;;;;;5031890;28;20227;-78
2022/09/10 01:20:19;;;;;;;3.90;2.00;;;;;;;;;;5029894;28;20219;-78
2022/09/10 01:23:02;;;;;;;8.73;2.10;;;;;;;;;;5030174;28;20222;-77
2022/09/10 01:25:37;;;;;;;6.90;2.20;;;;;;;;;;5027670;28;20215;-78
2022/09/10 01:28:07;;;;;;;5.00;1.90;;;;;;;;;;5024994;28;20709;-76
2022/09/10 01:30:36;;;;;;;5.47;2.03;;;;;;;;;;5031778;28;20685;-78
2022/09/10 01:33:08;;;;;;;5.33;1.90;;;;;;;;;;5032838;28;20230;-75
2022/09/10 01:35:38;;;;;;;5.47;1.80;;;;;;;;;;5033063;28;20217;-77
2022/09/10 01:38:08;;;;;;;3.60;2.40;;;;;;;;;;5033704;28;20219;-77
2022/09/10 01:40:36;;;;;;;5.63;2.00;;;;;;;;;;5034202;28;20206;-77
2022/09/10 01:43:04;;;;;;;4.13;2.03;;;;;;;;;;5031883;28;20203;-77
2022/09/10 01:45:36;;;;;;;3.20;1.60;;;;;;;;;;5033062;28;20204;-76
2022/09/10 01:48:09;;;;;;;5.23;1.80;;;;;;;;;;5034769;28;20227;-77
2022/09/10 01:50:42;;;;;;;4.30;1.50;;;;;;;;;;5034941;28;20246;-78
2022/09/10 01:53:15;;;;;;;7.50;1.80;;;;;;;;;;5030453;28;20222;-77
2022/09/10 01:55:47;;;;;;;3.53;1.70;;;;;;;;;;5035916;28;20200;-77
2022/09/10 01:58:20;;;;;;;3.23;1.77;;;;;;;;;;5031690;28;20231;-78
2022/09/10 02:00:52;;;;;;;2.43;1.63;;;;;;;;;;5034440;28;20195;-78
2022/09/10 02:03:23;;;;;;;2.80;1.70;;;;;;;;;;5035390;28;20215;-75
2022/09/10 02:05:51;;;;;;;4.80;1.87;;;;;;;;;;5038725;28;20200;-77
2022/09/10 02:08:22;;;;;;;2.30;1.43;;;;;;;;;;5034771;28;20219;-77
2022/09/10 02:10:53;;;;;;;4.40;1.33;;;;;;;;;;5033854;28;20199;-77
2022/09/10 02:13:21;;;;;;;8.97;1.87;;;;;;;;;;5032275;28;20203;-78
2022/09/10 02:15:50;;;;;;;5.07;2.23;;;;;;;;;;5030422;28;20647;-78
2022/09/10 02:18:18;;;;;;;3.17;2.10;;;;;;;;;;5034535;28;20230;-77
2022/09/10 02:20:46;;;;;;;7.50;1.90;;;;;;;;;;5033790;28;20203;-78
2022/09/10 02:23:15;;;;;;;9.03;2.10;;;;;;;;;;5031337;28;20681;-77
2022/09/10 02:25:42;;;;;;;6.57;2.33;;;;;;;;;;5034662;28;20196;-77
2022/09/10 02:28:09;;;;;;;7.23;2.17;;;;;;;;;;5032346;28;20216;-77
2022/09/10 02:30:36;;;;;;;6.93;2.17;;;;;;;;;;5034231;28;20200;-77
2022/09/10 02:33:05;;;;;;;5.00;2.30;;;;;;;;;;5031174;28;20674;-77
2022/09/10 02:35:32;;;;;;;4.53;2.00;;;;;;;;;;5031942;28;20200;-76
2022/09/10 02:37:59;;;;;;;6.97;2.00;;;;;;;;;;5032052;28;20234;-77
2022/09/10 02:40:30;;;;;;;4.47;2.30;;;;;;;;;;5030559;28;20686;-77
2022/09/10 02:42:57;;;;;;;2.10;1.63;;;;;;;;;;5029033;28;20214;-77
2022/09/10 02:45:24;;;;;;;5.67;2.07;;;;;;;;;;5033114;28;20202;-78
2022/09/10 02:47:51;;;;;;;4.60;2.17;;;;;;;;;;5029779;28;20269;-77
2022/09/10 02:50:20;;;;;;;4.17;2.00;;;;;;;;;;5032200;28;20227;-77
2022/09/10 02:52:50;;;;;;;3.73;1.77;;;;;;;;;;5028350;28;20196;-77
2022/09/10 02:55:17;;;;;;;4.00;1.93;;;;;;;;;;5028616;28;20218;-77
2022/09/10 02:57:45;;;;;;;6.03;2.20;;;;;;;;;;5033773;28;20219;-77
2022/09/10 03:00:12;;;;;;;8.57;1.97;;;;;;;;;;5032704;28;20219;-77
2022/09/10 03:02:41;;;;;;;4.13;2.00;;;;;;;;;;5032233;28;20208;-75
2022/09/10 03:05:08;;;;;;;3.57;2.17;;;;;;;;;;5031999;28;20204;-76
2022/09/10 03:07:37;;;;;;;5.93;1.83;;;;;;;;;;5029542;28;20226;-77
2022/09/10 03:10:04;;;;;;;6.73;2.00;;;;;;;;;;5032961;28;20195;-77
2022/09/10 03:12:31;;;;;;;2.73;1.77;;;;;;;;;;5034273;28;20230;-77
2022/09/10 03:14:58;;;;;;;5.43;2.10;;;;;;;;;;5031994;28;20207;-78
2022/09/10 03:17:26;;;;;;;3.67;1.70;;;;;;;;;;5031550;28;20235;-78
2022/09/10 03:19:53;;;;;;;4.23;1.80;;;;;;;;;;5033168;28;20229;-78
2022/09/10 03:22:20;;;;;;;4.83;2.10;;;;;;;;;;5030994;28;20206;-78
2022/09/10 03:24:51;;;;;;;4.07;1.83;;;;;;;;;;5032278;28;20207;-77
2022/09/10 03:27:19;;;;;;;2.87;1.83;;;;;;;;;;5032080;28;20254;-77
2022/09/10 03:29:46;;;;;;;4.23;2.10;;;;;;;;;;5029541;28;20666;-78
2022/09/10 03:32:13;;;;;;;5.77;2.40;;;;;;;;;;5030388;28;20211;-77
2022/09/10 03:34:40;;;;;;;11.20;2.50;;;;;;;;;;5028971;28;20227;-77
2022/09/10 03:37:07;;;;;;;11.27;3.00;;;;;;;;;;5033219;28;20242;-78
2022/09/10 03:39:34;;;;;;;5.40;3.13;;;;;;;;;;5030986;28;20876;-77
2022/09/10 03:42:04;;;;;;;6.57;2.83;;;;;;;;;;5032001;28;20208;-78
2022/09/10 03:44:32;;;;;;;6.13;3.07;;;;;;;;;;5029699;28;20211;-78
2022/09/10 03:46:59;;;;;;;7.53;3.33;;;;;;;;;;5029154;28;20211;-77
2022/09/10 03:49:26;;;;;;;7.30;2.87;;;;;;;;;;5032505;28;20211;-77
2022/09/10 03:51:54;;;;;;;6.83;2.80;;;;;;;;;;5032189;28;20200;-78
2022/09/10 03:54:22;;;;;;;10.43;2.77;;;;;;;;;;5030384;28;20200;-77
2022/09/10 03:56:49;;;;;;;9.07;2.93;;;;;;;;;;5031338;28;20249;-78
2022/09/10 03:59:18;;;;;;;8.20;2.40;;;;;;;;;;5031252;28;20738;-78
2022/09/10 04:01:45;;;;;;;4.57;2.37;;;;;;;;;;5028870;28;20265;-77
2022/09/10 04:04:13;;;;;;;8.13;2.43;;;;;;;;;;5028194;28;20242;-78
2022/09/10 04:06:41;;;;;;;6.60;2.77;;;;;;;;;;5032316;28;20270;-78
2022/09/10 04:09:08;;;;;;;5.17;2.27;;;;;;;;;;5030035;28;20262;-77
2022/09/10 04:11:36;;;;;;;11.50;2.80;;;;;;;;;;5030183;28;20218;-77
2022/09/10 04:14:03;;;;;;;6.93;2.00;;;;;;;;;;5031701;28;20212;-74
2022/09/10 04:16:31;;;;;;;6.87;2.80;;;;;;;;;;5029379;28;20203;-78
2022/09/10 04:18:58;;;;;;;4.63;2.33;;;;;;;;;;5031550;28;20228;-78
2022/09/10 04:21:26;;;;;;;5.60;2.50;;;;;;;;;;5030878;28;20662;-78
2022/09/10 04:23:56;;;;;;;4.80;2.57;;;;;;;;;;5031822;28;20243;-76
2022/09/10 04:26:23;;;;;;;4.87;2.70;;;;;;;;;;5030372;28;20210;-78
2022/09/10 04:28:51;;;;;;;7.70;3.10;;;;;;;;;;5032442;28;20230;-78
2022/09/10 04:31:18;;;;;;;5.80;2.70;;;;;;;;;;5029927;28;20212;-77
2022/09/10 04:33:47;;;;;;;7.97;2.63;;;;;;;;;;5032377;28;20195;-78
2022/09/10 04:36:14;;;;;;;11.90;2.70;;;;;;;;;;5030915;28;20225;-77
2022/09/10 04:38:42;;;;;;;6.27;2.40;;;;;;;;;;5027970;28;20538;-78
2022/09/10 04:41:09;;;;;;;9.33;2.80;;;;;;;;;;5031142;28;20230;-78
2022/09/10 04:43:37;;;;;;;7.73;3.10;;;;;;;;;;5029419;28;20210;-77
2022/09/10 04:46:04;;;;;;;8.47;3.07;;;;;;;;;;5029031;28;20261;-78
2022/09/10 04:48:33;;;;;;;4.50;2.77;;;;;;;;;;5028056;28;20240;-78
2022/09/10 04:51:01;;;;;;;6.43;3.10;;;;;;;;;;5035365;28;20205;-76
2022/09/10 04:53:30;;;;;;;6.93;3.00;;;;;;;;;;5031459;28;20675;-78
2022/09/10 04:55:57;;;;;;;8.53;3.00;;;;;;;;;;5031190;28;20294;-78
2022/09/10 04:58:25;;;;;;;7.97;2.87;;;;;;;;;;5027959;28;20223;-77
2022/09/10 05:00:53;;;;;;;10.77;3.17;;;;;;;;;;5030024;28;20295;-78
2022/09/10 05:03:21;;;;;;;12.57;3.40;;;;;;;;;;5028907;28;20215;-77
2022/09/10 05:05:48;;;;;;;7.50;2.90;;;;;;;;;;5027984;28;20211;-77
2022/09/10 05:08:16;;;;;;;8.70;3.03;;;;;;;;;;5032534;28;20698;-77
2022/09/10 05:10:45;;;;;;;7.47;3.10;;;;;;;;;;5030168;28;20196;-78
2022/09/10 05:13:12;;;;;;;7.97;3.00;;;;;;;;;;5031418;28;20234;-78
2022/09/10 05:15:40;;;;;;;4.50;2.63;;;;;;;;;;5027802;28;20263;-77
2022/09/10 05:18:09;;;;;;;9.70;2.93;;;;;;;;;;5029074;28;20235;-78
2022/09/10 05:20:37;;;;;;;6.10;2.50;;;;;;;;;;5026886;28;20231;-77
2022/09/10 05:23:04;;;;;;;11.20;2.70;;;;;;;;;;5031540;28;20212;-78
2022/09/10 05:25:33;;;;;;;6.17;2.27;;;;;;;;;;5029101;28;20211;-78
2022/09/10 05:28:00;;;;;;;8.27;2.90;;;;;;;;;;5028199;28;20281;-78
2022/09/10 05:30:31;;;;;;;5.20;2.70;;;;;;;;;;5030402;28;20218;-76
2022/09/10 05:33:00;;;;;;;5.53;2.70;;;;;;;;;;5028398;28;20231;-78
2022/09/10 05:35:27;;;;;;;7.63;3.20;;;;;;;;;;5031551;28;20246;-77
2022/09/10 05:37:56;;;;;;;7.10;3.00;;;;;;;;;;5025085;28;20235;-78
2022/09/10 05:40:24;;;;;;;5.33;2.97;;;;;;;;;;5027789;28;20215;-78
2022/09/10 05:42:52;;;;;;;4.00;2.80;;;;;;;;;;5026904;28;20695;-76
2022/09/10 05:45:20;;;;;;;6.53;2.87;;;;;;;;;;5028963;28;20771;-75
2022/09/10 05:47:47;;;;;;;4.27;2.60;;;;;;;;;;5028307;28;20236;-79
2022/09/10 05:50:14;;;;;;;5.20;3.07;;;;;;;;;;5028740;28;20661;-76
2022/09/10 05:52:41;;;;;;;5.30;2.57;;;;;;;;;;5029277;28;20202;-79
2022/09/10 05:55:09;;;;;;;3.87;2.13;;;;;;;;;;5030117;28;20675;-77
2022/09/10 05:57:36;;;;;;;8.53;2.63;;;;;;;;;;5027145;28;20646;-78
2022/09/10 06:00:06;;;;;;;6.97;2.40;;;;;;;;;;5026526;28;20620;-78
2022/09/10 06:02:34;;;;;;;5.30;2.40;;;;;;;;;;5027555;28;20970;-78
2022/09/10 06:05:01;;;;;;;5.63;2.53;;;;;;;;;;5028347;28;20200;-78
2022/09/10 06:07:28;;;;;;;5.40;2.80;;;;;;;;;;5025225;28;20714;-76
2022/09/10 06:09:56;;;;;;;4.37;2.70;;;;;;;;;;5026974;28;20224;-77
2022/09/10 06:12:23;;;;;;;7.57;2.50;;;;;;;;;;5028407;28;20200;-79
2022/09/10 06:14:50;;;;;;;6.07;2.97;;;;;;;;;;5027559;28;20200;-79
2022/09/10 06:17:19;;;;;;;6.83;2.70;;;;;;;;;;5031474;28;20223;-78
2022/09/10 06:19:46;;;;;;;7.93;2.63;;;;;;;;;;5030161;28;20722;-78
2022/09/10 06:22:13;;;;;;;6.57;2.83;;;;;;;;;;5033191;28;20673;-78
2022/09/10 06:24:41;;;;;;;7.40;2.63;;;;;;;;;;5031549;28;20212;-78
2022/09/10 06:27:08;;;;;;;6.70;2.70;;;;;;;;;;5031148;28;20235;-78
2022/09/10 06:29:36;;;;;;;6.73;2.77;;;;;;;;;;5029778;28;20219;-79
2022/09/10 06:32:03;;;;;;;4.70;2.83;;;;;;;;;;5030286;28;20204;-78
2022/09/10 06:34:32;;;;;;;6.33;2.90;;;;;;;;;;5031025;28;20574;-78
2022/09/10 06:37:01;;;;;;;5.33;2.70;;;;;;;;;;5029210;28;20200;-78
2022/09/10 06:39:28;;;;;;;7.37;2.30;;;;;;;;;;5026066;28;20624;-78
2022/09/10 06:41:55;;;;;;;6.07;2.70;;;;;;;;;;5025984;28;20207;-77
2022/09/10 06:44:22;;;;;;;5.50;3.00;;;;;;;;;;5030355;28;20207;-79
2022/09/10 06:46:49;;;;;;;3.70;2.70;;;;;;;;;;5030003;28;20216;-76
2022/09/10 06:49:17;;;;;;;5.50;2.73;;;;;;;;;;5030473;28;20207;-78
2022/09/10 06:51:46;;;;;;;5.77;2.90;;;;;;;;;;5022232;28;20235;-78
2022/09/10 06:54:13;;;;;;;4.90;2.93;;;;;;;;;;5028941;28;20205;-78
2022/09/10 06:56:41;;;;;;;9.40;2.90;;;;;;;;;;5029353;28;20208;-77
2022/09/10 06:59:08;;;;;;;5.90;2.67;;;;;;;;;;5030017;28;20298;-77
2022/09/10 07:01:37;;;;;;;5.57;2.57;;;;;;;;;;5028527;28;20235;-78
2022/09/10 07:04:05;;;;;;;12.80;3.13;;;;;;;;;;5030747;28;20204;-77
2022/09/10 07:06:34;;;;;;;7.57;2.67;;;;;;;;;;5028863;28;20202;-77
2022/09/10 07:09:03;;;;;;;6.97;2.87;;;;;;;;;;5029928;28;20220;-78
2022/09/10 07:11:31;;;;;;;3.80;2.13;;;;;;;;;;5030382;28;20226;-76
2022/09/10 07:13:58;;;;;;;5.97;1.90;;;;;;;;;;5028825;28;20210;-78
2022/09/10 07:16:26;;;;;;;4.03;2.00;;;;;;;;;;5027136;28;20204;-77
2022/09/10 07:18:55;;;;;;;7.30;2.20;;;;;;;;;;5033422;28;20224;-78
2022/09/10 07:21:24;;;;;;;5.00;1.93;;;;;;;;;;5029179;28;20220;-78
2022/09/10 07:23:55;;;;;;;6.80;1.93;;;;;;;;;;5030113;28;20216;-78
2022/09/10 07:26:23;;;;;;;3.87;1.87;;;;;;;;;;5028638;28;20218;-78
2022/09/10 07:28:51;;;;;;;5.63;1.70;;;;;;;;;;5024169;28;20227;-78
2022/09/10 07:31:18;;;;;;;3.90;1.87;;;;;;;;;;5029090;28;20199;-76
2022/09/10 07:33:46;;;;;;;2.40;1.20;;;;;;;;;;5021579;28;20684;-76
2022/09/10 07:36:13;;;;;;;5.40;1.47;;;;;;;;;;5025952;28;20203;-77
2022/09/10 07:38:41;;;;;;;4.57;1.30;;;;;;;;;;5028716;28;20220;-77
2022/09/10 07:41:10;;;;;;;2.30;1.10;;;;;;;;;;5019412;28;20361;-78
2022/09/10 07:43:39;;;;;;;1.67;0.90;;;;;;;;;;5021947;28;20257;-75
2022/09/10 07:46:06;;;;;;;5.63;0.90;;;;;;;;;;5026816;28;20286;-77
2022/09/10 07:48:33;;;;;;;2.43;0.80;;;;;;;;;;5028285;28;20243;-77
2022/09/10 07:51:04;;;;;;;3.73;0.87;;;;;;;;;;5029896;28;20227;-77
2022/09/10 07:53:31;;;;;;;3.20;0.70;;;;;;;;;;5029432;28;20203;-77
2022/09/10 07:56:00;;;;;;;2.30;0.70;;;;;;;;;;5028295;28;20215;-78
2022/09/10 07:58:28;;;;;;;1.93;0.70;;;;;;;;;;5024245;28;20231;-76
2022/09/10 08:00:56;;;;;;;4.13;0.70;;;;;;;;;;5030075;28;20228;-78
2022/09/10 08:03:23;;;;;;;0.53;0.50;;;;;;;;;;5024729;28;20208;-78
2022/09/10 08:05:50;;;;;;;1.67;0.37;;;;;;;;;;5029108;28;20673;-79
2022/09/10 08:08:18;;;;;;;3.20;0.60;;;;;;;;;;5026292;28;20260;-78
2022/09/10 08:10:45;;;;;;;1.33;0.40;;;;;;;;;;5027996;28;20585;-78
2022/09/10 08:13:13;;;;;;;2.87;0.47;;;;;;;;;;5025473;28;20215;-77
2022/09/10 08:15:42;;;;;;;2.20;0.47;;;;;;;;;;5026138;28;20689;-78
2022/09/10 08:18:11;;;;;;;1.60;0.43;;;;;;;;;;5026928;28;20236;-78
2022/09/10 08:20:38;;;;;;;1.53;0.40;;;;;;;;;;5025374;28;20243;-78
2022/09/10 08:23:06;;;;;;;1.43;0.50;;;;;;;;;;5022359;28;20291;-77
2022/09/10 08:25:33;;;;;;;1.50;0.50;;;;;;;;;;5024385;28;20199;-77
2022/09/10 08:28:00;;;;;;;1.50;0.50;;;;;;;;;;5025879;28;20238;-75
2022/09/10 08:30:30;;;;;;;1.80;0.47;;;;;;;;;;5024854;28;20205;-77
2022/09/10 08:32:58;;;;;;;3.67;0.50;;;;;;;;;;5027178;28;20262;-77
2022/09/10 08:35:27;;;;;;;1.00;0.37;;;;;;;;;;5025456;28;20214;-77
2022/09/10 08:37:54;;;;;;;1.00;0.40;;;;;;;;;;5022239;28;20227;-76
2022/09/10 08:40:22;;;;;;;0.93;0.30;;;;;;;;;;5024299;28;20693;-77
2022/09/10 08:42:51;;;;;;;1.83;0.40;;;;;;;;;;5028009;28;20207;-77
2022/09/10 08:45:22;;;;;;;1.03;0.30;;;;;;;;;;5029393;28;20200;-77
2022/09/10 08:47:54;;;;;;;0.97;0.40;;;;;;;;;;5023563;28;20231;-77
2022/09/10 08:50:24;;;;;;;2.37;0.40;;;;;;;;;;5026590;28;20199;-78
2022/09/10 08:52:56;;;;;;;0.50;0.40;;;;;;;;;;5020497;28;20700;-76
2022/09/10 08:55:25;;;;;;;0.90;0.40;;;;;;;;;;5027157;28;20208;-77
2022/09/10 08:57:55;;;;;;;2.00;0.70;;;;;;;;;;5028801;28;20253;-76
2022/09/10 09:00:23;;;;;;;0.73;0.40;;;;;;;;;;5029775;28;20223;-77
2022/09/10 09:02:55;;;;;;;3.50;0.83;;;;;;;;;;5026212;28;20366;-75
2022/09/10 09:05:24;;;;;;;5.03;0.60;;;;;;;;;;5026758;28;20357;-76
2022/09/10 09:07:52;;;;;;;3.53;0.50;;;;;;;;;;5025476;28;20229;-76
2022/09/10 09:10:27;;;;;;;2.83;0.53;;;;;;;;;;5019796;28;20238;-78
2022/09/10 09:13:02;;;;;;;1.23;0.70;;;;;;;;;;5025969;28;20199;-78
2022/09/10 09:15:36;;;;;;;1.67;0.57;;;;;;;;;;5028026;28;20203;-78
2022/09/10 09:18:09;;;;;;;2.63;0.60;;;;;;;;;;5026719;28;20281;-78
2022/09/10 09:20:43;;;;;;;0.90;0.40;;;;;;;;;;5027208;28;20253;-77
2022/09/10 09:23:17;;;;;;;1.70;0.50;;;;;;;;;;5025936;28;20214;-77
2022/09/10 09:25:48;;;;;;;3.33;0.53;;;;;;;;;;5025304;28;20199;-77
2022/09/10 09:28:17;;;;;;;0.50;0.40;;;;;;;;;;5024972;28;21724;-77
2022/09/10 09:30:48;;;;;;;1.03;0.50;;;;;;;;;;5024949;28;20206;-77
2022/09/10 09:33:16;;;;;;;0.60;0.40;;;;;;;;;;5027479;28;20203;-76
2022/09/10 09:35:45;;;;;;;3.23;0.77;;;;;;;;;;5024800;28;20204;-76
2022/09/10 09:38:17;;;;;;;1.13;0.50;;;;;;;;;;5024135;28;20231;-77
2022/09/10 09:40:47;;;;;;;1.23;0.70;;;;;;;;;;5023252;28;20246;-77
2022/09/10 09:43:22;;;;;;;1.57;0.60;;;;;;;;;;5021682;28;20204;-76
2022/09/10 09:45:53;;;;;;;0.70;0.40;;;;;;;;;;5024291;28;20721;-77
2022/09/10 09:48:21;;;;;;;0.27;0.27;;;;;;;;;;5020672;28;20224;-76
2022/09/10 09:50:49;;;;;;;0.30;0.30;;;;;;;;;;5025980;28;20617;-76
2022/09/10 09:53:19;;;;;;;0.70;0.50;;;;;;;;;;5027894;28;20207;-77
2022/09/10 09:55:47;;;;;;;2.70;0.30;;;;;;;;;;5025855;28;20235;-76
2022/09/10 09:58:30;;;;;;;1.93;0.30;;;;;;;;;;5032359;28;20224;-77
2022/09/10 10:01:11;;;;;;;1.43;0.20;;;;;;;;;;5031423;28;20231;-77
2022/09/10 10:03:47;;;;;;;0.70;0.33;;;;;;;;;;5031164;28;20222;-77
2022/09/10 10:06:18;;;;;;;0.73;0.30;;;;;;;;;;5033371;28;20203;-77
2022/09/10 10:08:47;;;;;;;0.87;0.20;;;;;;;;;;5023802;28;20219;-77
2022/09/10 10:11:15;;;;;;;1.07;0.30;;;;;;;;;;5030480;28;20192;-75
2022/09/10 10:13:44;;;;;;;0.57;0.50;;;;;;;;;;5028639;28;20295;-75
2022/09/10 10:16:16;;;;;;;0.70;0.40;;;;;;;;;;5025592;28;20203;-76
2022/09/10 10:18:43;;;;;;;0.33;0.30;;;;;;;;;;5028308;28;20602;-76
2022/09/10 10:21:13;;;;;;;0.70;0.40;;;;;;;;;;5026540;28;20216;-77
2022/09/10 10:23:40;;;;;;;0.87;0.40;;;;;;;;;;5030303;28;20214;-76
2022/09/10 10:26:19;;;;;;;1.23;0.40;;;;;;;;;;5029955;28;20200;-77
2022/09/10 10:28:48;;;;;;;2.33;0.40;;;;;;;;;;5030372;28;20223;-77
2022/09/10 10:31:15;;;;;;;1.57;0.60;;;;;;;;;;5025958;28;20202;-76
2022/09/10 10:33:58;;;;;;;1.47;0.50;;;;;;;;;;5027582;28;20199;-76
2022/09/10 10:36:31;;;;;;;1.40;0.70;;;;;;;;;;5029171;28;20228;-76
2022/09/10 10:39:01;;;;;;;1.10;0.60;;;;;;;;;;5025639;28;20220;-77
2022/09/10 10:41:36;;;;;;;1.50;0.80;;;;;;;;;;5024647;28;20230;-76
2022/09/10 10:44:27;;;;;;;3.03;0.57;;;;;;;;;;5026272;28;20195;-77
2022/09/10 10:47:02;;;;;;;3.27;0.87;;;;;;;;;;5013645;28;20573;-77
2022/09/10 10:49:32;;;;;;;1.77;0.80;;;;;;;;;;5025611;28;20210;-77
2022/09/10 10:52:04;;;;;;;1.63;0.60;;;;;;;;;;5023138;28;20981;-77
2022/09/10 10:54:58;;;;;;;2.07;0.90;;;;;;;;;;5025755;28;20243;-77
2022/09/10 10:57:31;;;;;;;2.07;0.83;;;;;;;;;;5002215;28;20278;-77
2022/09/10 11:00:02;;;;;;;2.07;0.77;;;;;;;;;;5028129;28;20215;-77
2022/09/10 11:02:37;;;;;;;2.93;0.83;;;;;;;;;;5020483;28;20227;-77
2022/09/10 11:05:07;;;;;;;3.53;1.00;;;;;;;;;;5019709;28;20211;-77
2022/09/10 11:07:39;;;;;;;3.97;0.90;;;;;;;;;;5021126;28;20854;-77
2022/09/10 11:10:13;;;;;;;3.87;1.00;;;;;;;;;;5023786;28;20199;-76
2022/09/10 11:12:44;;;;;;;4.77;0.90;;;;;;;;;;5021891;28;20199;-77
2022/09/10 11:15:19;;;;;;;2.60;1.10;;;;;;;;;;5028085;28;20200;-78
2022/09/10 11:17:52;;;;;;;1.73;0.90;;;;;;;;;;5024904;28;20241;-77
2022/09/10 11:20:22;;;;;;;2.30;0.97;;;;;;;;;;5027047;28;20204;-77
2022/09/10 11:22:50;;;;;;;3.80;0.83;;;;;;;;;;5024499;28;20224;-77
2022/09/10 11:25:20;;;;;;;1.63;0.90;;;;;;;;;;5027206;28;20204;-77
2022/09/10 11:27:49;;;;;;;3.40;1.00;;;;;;;;;;5027357;28;20223;-77
2022/09/10 11:30:18;;;;;;;1.23;0.90;;;;;;;;;;5025295;28;20831;-77
2022/09/10 11:32:46;;;;;;;1.13;0.77;;;;;;;;;;5029465;28;20290;-77
2022/09/10 11:35:20;;;;;;;2.30;1.00;;;;;;;;;;5025644;28;20204;-77
2022/09/10 11:37:52;;;;;;;1.23;0.80;;;;;;;;;;5026583;28;20600;-77
2022/09/10 11:40:24;;;;;;;2.87;1.00;;;;;;;;;;5029465;28;20210;-77
2022/09/10 11:42:52;;;;;;;3.00;1.40;;;;;;;;;;5026835;28;20235;-77
2022/09/10 11:45:26;;;;;;;3.87;0.80;;;;;;;;;;5025281;28;20223;-77
2022/09/10 11:47:56;;;;;;;2.80;0.80;;;;;;;;;;5028692;28;20314;-76
2022/09/10 11:50:29;;;;;;;2.13;1.00;;;;;;;;;;5025414;28;20218;-77
2022/09/10 11:52:59;;;;;;;4.00;0.80;;;;;;;;;;5025991;28;20700;-76
2022/09/10 11:55:32;;;;;;;1.90;0.70;;;;;;;;;;5026591;28;20226;-77
2022/09/10 11:58:06;;;;;;;1.27;0.70;;;;;;;;;;5027067;28;20258;-77
2022/09/10 12:00:36;;;;;;;1.80;0.60;;;;;;;;;;5025533;28;20219;-76
2022/09/10 12:03:21;;;;;;;1.07;0.50;;;;;;;;;;5026611;28;20307;-77
2022/09/10 12:05:55;;;;;;;0.83;0.43;;;;;;;;;;5023877;28;20195;-77
2022/09/10 12:08:31;;;;;;;1.00;0.60;;;;;;;;;;5022327;28;20294;-77
2022/09/10 12:11:06;;;;;;;0.63;0.40;;;;;;;;;;5026555;28;20227;-77
2022/09/10 12:13:38;;;;;;;0.80;0.60;;;;;;;;;;5026304;28;20199;-77
2022/09/10 12:16:12;;;;;;;1.80;0.60;;;;;;;;;;5026627;28;20214;-77
2022/09/10 12:18:42;;;;;;;4.03;1.07;;;;;;;;;;5024399;28;20214;-77
2022/09/10 12:21:16;;;;;;;1.47;0.70;;;;;;;;;;5019125;28;20206;-77
2022/09/10 12:23:44;;;;;;;2.70;0.80;;;;;;;;;;5023403;28;20208;-76
2022/09/10 12:26:13;;;;;;;1.67;0.63;;;;;;;;;;5019469;28;20214;-77
2022/09/10 12:28:58;;;;;;;1.20;0.90;;;;;;;;;;5019489;28;20250;-77
2022/09/10 12:31:26;;;;;;;2.27;0.83;;;;;;;;;;4973585;28;20203;-77
2022/09/10 12:34:11;;;;;;;2.47;0.90;;;;;;;;;;5018257;28;20207;-77
2022/09/10 12:36:57;;;;;;;0.87;0.70;;;;;;;;;;5028858;28;20200;-77
2022/09/10 12:39:26;;;;;;;2.63;0.70;;;;;;;;;;5026144;28;20207;-77
2022/09/10 12:41:57;;;;;;;1.57;0.77;;;;;;;;;;5026306;28;20222;-76
2022/09/10 12:44:33;;;;;;;1.80;0.93;;;;;;;;;;5027716;28;20733;-77
2022/09/10 12:47:21;;;;;;;3.00;1.07;;;;;;;;;;5027630;28;20203;-77
2022/09/10 12:49:49;;;;;;;3.13;1.20;;;;;;;;;;5028270;28;20211;-77
2022/09/10 12:52:19;;;;;;;1.50;0.90;;;;;;;;;;5023291;28;20199;-77
2022/09/10 12:54:54;;;;;;;3.33;1.00;;;;;;;;;;5030251;28;20246;-77
2022/09/10 12:57:28;;;;;;;2.17;0.83;;;;;;;;;;5027513;28;20250;-77
2022/09/10 13:00:22;;;;;;;2.67;1.10;;;;;;;;;;5025121;28;20204;-77
2022/09/10 13:02:53;;;;;;;3.23;1.20;;;;;;;;;;5027341;28;20297;-75
2022/09/10 13:05:35;;;;;;;0.90;0.80;;;;;;;;;;5030138;28;20207;-75
2022/09/10 13:08:08;;;;;;;1.73;1.00;;;;;;;;;;5030088;28;20231;-77
2022/09/10 13:10:37;;;;;;;1.80;0.80;;;;;;;;;;5030615;28;20571;-77
2022/09/10 13:13:06;;;;;;;2.20;1.03;;;;;;;;;;5026591;28;20207;-77
2022/09/10 13:15:35;;;;;;;2.10;1.00;;;;;;;;;;5023210;28;20207;-77
2022/09/10 13:18:22;;;;;;;1.73;1.00;;;;;;;;;;5027138;28;20300;-77
2022/09/10 13:20:49;;;;;;;2.10;0.90;;;;;;;;;;5018544;28;20709;-76
2022/09/10 13:23:24;;;;;;;1.43;0.90;;;;;;;;;;5013975;28;20227;-77
2022/09/10 13:25:52;;;;;;;3.43;1.00;;;;;;;;;;5027155;28;20211;-77
2022/09/10 13:28:39;;;;;;;5.03;1.40;;;;;;;;;;5024268;28;20227;-77
2022/09/10 13:31:11;;;;;;;2.80;0.90;;;;;;;;;;5026315;28;20740;-77
2022/09/10 13:33:44;;;;;;;2.83;1.00;;;;;;;;;;5026789;28;20218;-77
2022/09/10 13:36:16;;;;;;;1.40;1.10;;;;;;;;;;5030438;28;20294;-77
2022/09/10 13:38:59;;;;;;;2.07;0.80;;;;;;;;;;5018950;28;20231;-77
2022/09/10 13:41:42;;;;;;;3.10;1.20;;;;;;;;;;5023198;28;20696;-76
2022/09/10 13:44:15;;;;;;;1.83;1.00;;;;;;;;;;5022438;28;21044;-76
2022/09/10 13:46:44;;;;;;;1.87;0.93;;;;;;;;;;5022741;28;20207;-76
2022/09/10 13:49:15;;;;;;;3.03;0.90;;;;;;;;;;5025133;28;20562;-76
2022/09/10 13:51:48;;;;;;;4.00;1.40;;;;;;;;;;5031286;28;20214;-76
2022/09/10 13:54:23;;;;;;;2.67;1.00;;;;;;;;;;5022115;28;20208;-76
2022/09/10 13:56:50;;;;;;;4.50;1.17;;;;;;;;;;5026625;28;20207;-76
2022/09/10 13:59:24;;;;;;;2.23;1.00;;;;;;;;;;5029633;28;20215;-76
2022/09/10 14:01:51;;;;;;;3.73;1.20;;;;;;;;;;5029222;28;20226;-76
2022/09/10 14:04:22;;;;;;;4.40;1.30;;;;;;;;;;5030717;28;20235;-76
2022/09/10 14:06:49;;;;;;;3.40;1.20;;;;;;;;;;5028498;28;20216;-76
2022/09/10 14:09:17;;;;;;;4.83;1.50;;;;;;;;;;5029419;28;20200;-77
2022/09/10 14:11:44;;;;;;;3.70;1.40;;;;;;;;;;5028551;28;20200;-76
2022/09/10 14:14:13;;;;;;;4.20;1.67;;;;;;;;;;5026545;28;20917;-77
2022/09/10 14:16:44;;;;;;;4.10;1.40;;;;;;;;;;5028607;28;20203;-77
2022/09/10 14:19:15;;;;;;;2.80;1.60;;;;;;;;;;5031150;28;20199;-78
2022/09/10 14:21:42;;;;;;;5.37;1.53;;;;;;;;;;5028509;28;20196;-78
2022/09/10 14:24:26;;;;;;;3.50;1.40;;;;;;;;;;5026580;28;20211;-76
2022/09/10 14:27:05;;;;;;;9.10;1.93;;;;;;;;;;5031552;28;20204;-79
2022/09/10 14:29:32;;;;;;;2.70;1.43;;;;;;;;;;5028191;28;20196;-78
2022/09/10 14:32:14;;;;;;;2.83;1.50;;;;;;;;;;5025157;28;20347;-78
2022/09/10 14:34:42;;;;;;;2.77;1.57;;;;;;;;;;5027494;28;20915;-77
2022/09/10 14:37:24;;;;;;;5.17;1.70;;;;;;;;;;5022667;28;20220;-77
2022/09/10 14:39:52;;;;;;;6.57;1.70;;;;;;;;;;5022951;28;20212;-77
2022/09/10 14:42:26;;;;;;;3.87;2.20;;;;;;;;;;5021912;28;20729;-77
2022/09/10 14:44:53;;;;;;;5.23;1.93;;;;;;;;;;5023802;28;20589;-77
2022/09/10 14:47:28;;;;;;;4.80;1.60;;;;;;;;;;5025285;28;20226;-77
2022/09/10 14:50:16;;;;;;;4.60;1.60;;;;;;;;;;5027205;28;20229;-76
2022/09/10 14:52:44;;;;;;;2.87;1.50;;;;;;;;;;5019914;28;20225;-77
2022/09/10 14:55:11;;;;;;;2.97;1.50;;;;;;;;;;5023617;28;20206;-76
2022/09/10 14:57:40;;;;;;;2.50;1.40;;;;;;;;;;5019193;28;20227;-76
2022/09/10 15:00:07;;;;;;;2.57;1.30;;;;;;;;;;5024071;28;20235;-76